createdAt,value
2019-05-11T00:03:09.870Z,12.5
2019-05-11T00:08:14.899Z,12.5
2019-05-11T00:13:19.877Z,12
2019-05-11T00:18:24.850Z,12.1
2019-05-11T00:23:29.872Z,11.6
2019-05-11T00:28:39.924Z,11.8
2019-05-11T00:33:49.862Z,11.7
2019-05-11T00:38:54.840Z,11.4
2019-05-11T00:43:59.872Z,11.5
2019-05-11T00:49:04.846Z,11.4
2019-05-11T00:54:09.831Z,11.3
2019-05-11T00:59:21.600Z,11.4
2019-05-11T01:04:19.892Z,11.3
2019-05-11T01:09:24.871Z,11.4
2019-05-11T01:19:25.116Z,11.3
2019-05-11T01:24:30.158Z,11.2
2019-05-11T01:29:35.107Z,11.2
2019-05-11T01:34:45.123Z,11.4
2019-05-11T01:39:55.086Z,11.2
2019-05-11T01:45:00.378Z,11
2019-05-11T01:50:05.060Z,10.9
2019-05-11T02:00:05.272Z,10.8
2019-05-11T02:05:10.286Z,10.9
2019-05-11T02:10:15.330Z,10.9
2019-05-11T02:15:25.327Z,10.9
2019-05-11T02:25:30.430Z,10.8
2019-05-11T02:30:35.453Z,10.8
2019-05-11T02:35:40.494Z,10.9
2019-05-11T02:40:50.437Z,10.9
2019-05-11T02:46:00.475Z,10.9
2019-05-11T02:51:05.475Z,10.9
2019-05-11T02:56:10.446Z,10.9
2019-05-11T03:01:15.431Z,10.8
2019-05-11T03:06:20.461Z,10.9
2019-05-11T03:11:30.480Z,10.9
2019-05-11T03:16:40.430Z,11.1
2019-05-11T03:21:45.475Z,11.1
2019-05-11T03:26:50.411Z,11.4
2019-05-11T03:31:55.459Z,11.3
2019-05-11T03:37:00.389Z,11.2
2019-05-11T03:42:14.406Z,11.4
2019-05-11T03:43:17.794Z,11.4
2019-05-11T03:47:10.447Z,11.4
2019-05-11T03:52:15.439Z,11.4
2019-05-11T03:57:20.451Z,11.2
2019-05-11T04:02:25.396Z,11.5
2019-05-11T04:07:30.449Z,11.6
2019-05-11T04:17:30.597Z,11.9
2019-05-11T04:22:35.623Z,11.8
2019-05-11T04:27:40.650Z,11.8
2019-05-11T04:32:50.568Z,11.9
2019-05-11T04:38:00.585Z,11.9
2019-05-11T04:43:05.656Z,11.9
2019-05-11T04:48:10.586Z,11.7
2019-05-11T04:53:15.628Z,12
2019-05-11T04:58:20.610Z,12.3
2019-05-11T05:03:40.094Z,12.1
2019-05-11T05:04:46.898Z,12.1
2019-05-11T05:08:40.585Z,12.3
2019-05-11T05:13:45.599Z,12.6
2019-05-11T05:18:50.577Z,12.6
2019-05-11T05:23:55.585Z,12.6
2019-05-11T05:29:00.610Z,12.3
2019-05-11T05:34:10.627Z,12.8
2019-05-11T05:39:20.571Z,13.4
2019-05-11T05:44:27.748Z,14
2019-05-11T05:49:30.778Z,13.8
2019-05-11T05:54:35.639Z,13.9
2019-05-11T05:59:40.571Z,14.1
2019-05-11T06:04:45.565Z,13.8
2019-05-11T06:09:55.675Z,14.2
2019-05-11T06:15:05.569Z,15.2
2019-05-11T06:20:10.609Z,14.2
2019-05-11T06:25:15.587Z,13.9
2019-05-11T06:30:20.595Z,13.6
2019-05-11T06:35:25.517Z,14.9
2019-05-11T06:40:35.579Z,14.8
2019-05-11T06:45:45.570Z,14.4
2019-05-11T06:50:50.523Z,15.1
2019-05-11T06:55:55.545Z,15.6
2019-05-11T07:01:00.546Z,16.6
2019-05-11T07:06:05.539Z,16.1
2019-05-11T07:11:15.542Z,15.8
2019-05-11T07:16:25.579Z,16
2019-05-11T07:21:31.597Z,16.3
2019-05-11T07:26:35.566Z,16.4
2019-05-11T07:31:40.541Z,15.5
2019-05-11T07:36:47.471Z,15.8
2019-05-11T07:46:48.044Z,16.5
2019-05-11T07:51:50.858Z,16.3
2019-05-11T07:56:58.116Z,17.3
2019-05-11T08:06:58.165Z,17.3
2019-05-11T08:12:00.790Z,16.8
2019-05-11T08:17:08.258Z,16.7
2019-05-11T08:22:15.828Z,17.2
2019-05-11T08:27:25.828Z,17.1
2019-05-11T08:32:30.837Z,17
2019-05-11T08:37:35.891Z,17.6
2019-05-11T08:42:40.792Z,17.8
2019-05-11T08:52:40.999Z,17
2019-05-11T08:57:47.910Z,17.7
2019-05-11T09:02:51.237Z,17.4
2019-05-11T09:08:00.979Z,17
2019-05-11T09:13:11.021Z,17
2019-05-11T09:18:16.017Z,16.9
2019-05-11T09:23:33.311Z,17.3
2019-05-11T09:24:38.345Z,17.3
2019-05-11T09:33:21.208Z,17.8
2019-05-11T09:38:27.704Z,17.6
2019-05-11T09:43:31.209Z,17.8
2019-05-11T09:53:31.401Z,17.8
2019-05-11T09:58:38.606Z,17.1
2019-05-11T10:03:41.413Z,17
2019-05-11T10:13:41.549Z,17.7
2019-05-11T10:18:48.734Z,17.5
2019-05-11T10:23:51.584Z,17.9
2019-05-11T10:29:01.587Z,18.2
2019-05-11T10:34:11.506Z,18
2019-05-11T10:39:18.597Z,18
2019-05-11T10:44:21.582Z,17.4
2019-05-11T10:49:28.746Z,18
2019-05-11T10:54:31.618Z,18.1
2019-05-11T10:59:41.611Z,17.7
2019-05-11T11:04:51.526Z,17.8
2019-05-11T11:09:58.031Z,18.1
2019-05-11T11:15:01.574Z,17.7
2019-05-11T11:20:08.534Z,18.2
2019-05-11T11:30:08.853Z,18.4
2019-05-11T11:35:11.708Z,18.1
2019-05-11T11:40:17.680Z,17.8
2019-05-11T11:45:28.732Z,17.8
2019-05-11T11:50:37.686Z,17.7
2019-05-11T11:55:41.660Z,17.7
2019-05-11T12:00:48.169Z,18.3
2019-05-11T12:10:48.413Z,18.1
2019-05-11T12:15:51.945Z,17.2
2019-05-11T12:20:58.519Z,17
2019-05-11T12:26:08.445Z,16.7
2019-05-11T12:31:18.326Z,15.7
2019-05-11T12:36:21.904Z,16
2019-05-11T12:41:28.002Z,16
2019-05-11T12:46:31.858Z,15.9
2019-05-11T12:51:38.237Z,15.9
2019-05-11T12:56:48.889Z,15.7
2019-05-11T13:01:58.981Z,15.5
2019-05-11T13:07:01.879Z,15.4
2019-05-11T13:17:02.123Z,15.3
2019-05-11T13:22:07.873Z,15.3
2019-05-11T13:27:12.107Z,15.4
2019-05-11T13:32:22.106Z,15.3
2019-05-11T13:37:32.089Z,15.5
2019-05-11T13:42:38.506Z,15.8
2019-05-11T13:47:52.360Z,15.8
2019-05-11T13:48:52.379Z,15.8
2019-05-11T13:52:47.799Z,15.5
2019-05-11T13:57:52.153Z,15.5
2019-05-11T14:02:58.420Z,15.8
2019-05-11T14:08:02.056Z,15.7
2019-05-11T14:13:08.726Z,15.3
2019-05-11T14:18:12.239Z,15.3
2019-05-11T14:23:18.213Z,15.4
2019-05-11T14:28:22.072Z,15.3
2019-05-11T14:33:28.215Z,14.9
2019-05-11T14:38:32.014Z,14.7
2019-05-11T14:43:42.207Z,14.7
2019-05-11T14:48:52.088Z,14.9
2019-05-11T14:53:59.402Z,14.9
2019-05-11T14:59:02.041Z,14.9
2019-05-11T15:04:08.953Z,15.1
2019-05-11T15:09:12.037Z,15
2019-05-11T15:14:22.241Z,14.4
2019-05-11T15:19:32.060Z,14.2
2019-05-11T15:24:38.431Z,14.6
2019-05-11T15:29:42.113Z,14.4
2019-05-11T15:34:48.699Z,14.6
2019-05-11T15:39:52.013Z,14.6
2019-05-11T15:45:02.010Z,14.2
2019-05-11T15:50:12.041Z,13.8
2019-05-11T15:55:18.776Z,13.8
2019-05-11T16:00:21.956Z,13.8
2019-05-11T16:05:28.466Z,13.9
2019-05-11T16:10:32.048Z,13.7
2019-05-11T16:15:42.001Z,13.5
2019-05-11T16:20:52.033Z,13.4
2019-05-11T16:25:58.054Z,13.3
2019-05-11T16:31:02.287Z,13.3
2019-05-11T16:36:08.990Z,13.3
2019-05-11T16:46:08.618Z,13.4
2019-05-11T16:51:12.182Z,13.5
2019-05-11T16:56:19.484Z,13.5
2019-05-11T17:01:27.156Z,13.5
2019-05-11T17:06:38.477Z,13.8
2019-05-11T17:11:42.204Z,13.6
2019-05-11T17:16:48.149Z,13.7
2019-05-11T17:26:47.879Z,13.5
2019-05-11T17:31:52.352Z,13.7
2019-05-11T17:36:59.980Z,13.7
2019-05-11T17:42:08.951Z,13.7
2019-05-11T17:47:17.919Z,13.8
2019-05-11T17:52:22.321Z,13.8
2019-05-11T18:02:22.455Z,13.7
2019-05-11T18:07:30.324Z,13.2
2019-05-11T18:12:32.522Z,13.3
2019-05-11T18:17:42.467Z,13
2019-05-11T18:22:52.489Z,13.1
2019-05-11T18:27:58.164Z,13
2019-05-11T18:33:02.640Z,12.9
2019-05-11T18:43:02.673Z,13
2019-05-11T18:48:08.122Z,13.1
2019-05-11T18:53:12.792Z,13.1
2019-05-11T18:58:22.680Z,12.8
2019-05-11T19:03:32.650Z,12.8
2019-05-11T19:08:38.412Z,12.8
2019-05-11T19:13:42.675Z,12.8
2019-05-11T19:18:48.036Z,12.8
2019-05-11T19:23:52.744Z,12.7
2019-05-11T19:29:02.669Z,12.7
2019-05-11T19:39:08.783Z,12.6
2019-05-11T19:44:12.909Z,12.6
2019-05-11T19:49:18.941Z,12.5
2019-05-11T19:59:18.032Z,12.5
2019-05-11T20:04:23.124Z,12.5
2019-05-11T20:09:28.334Z,12.6
2019-05-11T20:14:38.159Z,12.6
2019-05-11T20:19:49.016Z,12.5
2019-05-11T20:24:53.043Z,12.4
2019-05-11T20:29:58.141Z,12.3
2019-05-11T20:35:03.098Z,12.1
2019-05-11T20:40:09.194Z,12.1
2019-05-11T20:50:08.141Z,12.1
2019-05-11T20:55:13.170Z,12.1
2019-05-11T21:00:18.789Z,12.1
2019-05-11T21:05:28.131Z,12
2019-05-11T21:10:38.725Z,12.1
2019-05-11T21:15:43.159Z,12.1
2019-05-11T21:20:48.412Z,11.9
2019-05-11T21:25:53.153Z,11.9
2019-05-11T21:30:58.559Z,11.9
2019-05-11T21:36:03.177Z,11.8
2019-05-11T21:41:08.714Z,11.7
2019-05-11T21:46:13.398Z,11.9
2019-05-11T21:51:18.290Z,11.8
2019-05-11T21:56:23.145Z,11.9
2019-05-11T22:01:28.350Z,11.9
2019-05-11T22:11:28.546Z,11.9
2019-05-11T22:21:28.395Z,11.7
2019-05-11T22:26:33.464Z,11.6
2019-05-11T22:31:41.670Z,11.6
2019-05-11T22:36:48.461Z,11.5
2019-05-11T22:41:58.958Z,11.6
2019-05-11T22:47:03.485Z,11.3
2019-05-11T22:52:08.745Z,11.5
2019-05-11T22:57:13.419Z,11.4
2019-05-11T23:02:19.474Z,11.3
2019-05-11T23:07:28.797Z,11.3
2019-05-11T23:12:38.787Z,11.2
2019-05-11T23:17:43.416Z,11.1
2019-05-11T23:22:56.621Z,11.1
2019-05-11T23:23:54.717Z,11.1
2019-05-11T23:27:53.461Z,11.1
2019-05-11T23:32:58.744Z,11.2
2019-05-11T23:38:03.456Z,11.2
2019-05-11T23:48:03.589Z,11.1
2019-05-11T23:53:10.114Z,11
2019-05-11T23:58:13.564Z,11.1
